EPRAEPLL

Guest
Details From EPRA - RADOM SADKOW
To EPLL - LODZ LUBLINEK
Flight Number -
Tags generated
Created
Modified
Stats Distance 71 nm / 131 km
Max Altitude 3,100 ft / 945 m
Waypoints 3
Social Downloads 1
Likes 0
Share VATSIM

Download

Looking for another format? Having issues loading an existing format? Contact us
Advertisement - Login to hide

Notes

Basic altitude profile: - Ascent Rate: 2500ft/min - Ascent Speed: 250kts - Cruise Altitude: 35000ft - Cruise Speed: 420kts - Descent Rate: 1500ft/min - Descent Speed: 250kts Options: - Use NATs: yes - Use PACOTS: yes - Use low airways: yes - Use high airways: yes

Route

EPRA BAGAV EPLL

ID Type Via Altitude Latitude Longitude Leg Dist Tot Dist Heading (true) Name
O EPRA APT - 0 ft / 0 m 51.38888˚ 21.21166˚ - 0 nm - RADOM SADKOW
BAGAV FIX - 3,100 ft / 945 m 51.61167˚ 19.75556˚ 56 nm 56 nm 284° / 283° -
O EPLL APT - 0 ft / 0 m 51.72008˚ 19.39533˚ 14 nm 70 nm 296° / 296° LODZ LUBLINEK

Altitude Profile

Advertisement - Login to hide

EPRA

Details ICAO EPRA (QXR)
Name RADOM SADKOW
Region Poland
Timezone Europe/Warsaw (UTC+1.0)
Stats Elevation 623 ft / 190 m (AMSL)
Location 51.388880° 21.211661°
Runways 1
Magnetic Variation 5.738° E

METAR

EPRA 181100Z 01004KT 1200 BR BKN003 OVC011 M01/M01 Q1024

Decode

TAF

Not found

Departure Runways

ID Width Length Bearing (true) Bearing (mag) Surface Threshold Offset Overrun Length
07 197 ft / 60 m 6,569 ft / 2,002 m 74.99° 69.25° Concrete 0 ft / 0 m 0 ft / 0 m
25 197 ft / 60 m 6,569 ft / 2,002 m 255.01° 249.27° Concrete 0 ft / 0 m 0 ft / 0 m

EPLL

Details ICAO EPLL (LCJ)
Name LODZ LUBLINEK
Region Poland
Timezone Europe/Warsaw (UTC+1.0)
Stats Elevation 606 ft / 185 m (AMSL)
Location 51.720081° 19.395332°
Runways 2
Magnetic Variation 5.332° E

METAR

EPLL 181100Z 33003KT 4600 BR SCT003 OVC006 M01/M01 Q1025

Decode

TAF

TAF EPLL 180530Z 1806/1906 VRB02KT 0800 FZFG OVC001 TEMPO 1806/1809 0200 FZFG BECMG 1808/1811 6000 SCT018 BECMG 1817/1819 3000 BR TEMPO 1900/1906 1000 BR BKN004

Decode

Destination Runways

ID Width Length Bearing (true) Bearing (mag) Surface Threshold Offset Overrun Length
07L 148 ft / 45 m 8,184 ft / 2,495 m 70.76° 65.43° Concrete 0 ft / 0 m 0 ft / 0 m
07R 574 ft / 175 m 2,299 ft / 701 m 70.78° 65.45° Grass 0 ft / 0 m 0 ft / 0 m
25L 574 ft / 175 m 2,299 ft / 701 m 250.78° 245.45° Grass 0 ft / 0 m 0 ft / 0 m
25R 148 ft / 45 m 8,184 ft / 2,495 m 250.79° 245.46° Concrete 0 ft / 0 m 0 ft / 0 m

Approach Navaids

Runway Type Ident Frequency Range Bearing (true) Bearing (mag) Slope Elevation
25R Localiser ILOD 110.50 MHz 18 nm / 33 km 250.60° 245.27° - 604 ft / 184 m (AMSL)
25R Glidescope ILOD 110.50 MHz 10 nm / 19 km 250.60° 245.27° 3.00° 604 ft / 184 m (AMSL)